Time;durP1;ratioP1;P1;durP2;ratioP2;P2;SDS_P1;SDS_P2;PMS_P1;PMS_P2;Temp;Humidity;BMP_temperature;BMP_pressure;BME280_temperature;BME280_humidity;BME280_pressure;Samples;Min_cycle;Max_cycle;Signal;HPM_P1;HPM_P2
2021/12/01 00:00:30;;;;;;;6.38;1.02;;;;;;;8.96;100.00;99871.69;5109206;28;20059;-52
2021/12/01 00:02:58;;;;;;;1.38;0.77;;;;;;;8.93;100.00;99857.72;5109308;28;20066;-52
2021/12/01 00:05:28;;;;;;;1.17;0.60;;;;;;;8.96;100.00;99866.38;5109609;28;20052;-52
2021/12/01 00:07:57;;;;;;;5.35;0.80;;;;;;;8.94;100.00;99829.44;5108947;28;20130;-51
2021/12/01 00:10:27;;;;;;;2.08;0.60;;;;;;;8.88;100.00;99840.47;5108554;28;20514;-52
2021/12/01 00:12:56;;;;;;;1.52;0.55;;;;;;;8.95;100.00;99827.69;5105725;28;20047;-52
2021/12/01 00:15:24;;;;;;;0.70;0.50;;;;;;;8.96;100.00;99837.28;5109315;28;20113;-52
2021/12/01 00:17:53;;;;;;;2.67;0.63;;;;;;;8.95;100.00;99815.28;5108978;28;20069;-52
2021/12/01 00:20:22;;;;;;;3.08;0.80;;;;;;;8.98;100.00;99820.38;5108543;28;20124;-52
2021/12/01 00:22:51;;;;;;;1.63;0.68;;;;;;;9.01;100.00;99814.03;5109328;28;20066;-52
2021/12/01 00:25:23;;;;;;;2.30;0.70;;;;;;;9.04;100.00;99796.16;5109397;28;20407;-51
2021/12/01 00:27:51;;;;;;;;;;;;;;;9.04;100.00;99792.66;5109399;27;20056;-51
2021/12/01 00:30:21;;;;;;;0.75;0.57;;;;;;;9.04;100.00;99792.66;5108135;28;20366;-51
2021/12/01 00:32:53;;;;;;;2.13;0.80;;;;;;;9.08;100.00;99773.00;5109146;28;20062;-52
2021/12/01 00:35:21;;;;;;;1.77;0.67;;;;;;;9.11;100.00;99778.06;5115031;28;20074;-54
2021/12/01 00:37:49;;;;;;;1.65;0.50;;;;;;;9.09;100.00;99766.75;5114714;28;20063;-52
2021/12/01 00:40:18;;;;;;;1.27;0.50;;;;;;;9.13;100.00;99744.44;5115087;28;20055;-53
2021/12/01 00:42:47;;;;;;;1.60;0.60;;;;;;;9.08;100.00;99734.16;5114670;28;20134;-52
2021/12/01 00:45:18;;;;;;;2.05;0.45;;;;;;;9.11;100.00;99735.72;5113821;28;20062;-52
2021/12/01 00:47:50;;;;;;;1.27;0.45;;;;;;;9.18;100.00;99730.88;5112695;28;20069;-52
2021/12/01 00:50:21;;;;;;;2.38;0.68;;;;;;;9.16;100.00;99722.19;5114747;28;20477;-53
2021/12/01 00:52:50;;;;;;;0.80;0.50;;;;;;;9.17;100.00;99716.78;5114868;28;20055;-52
2021/12/01 00:55:18;;;;;;;0.40;0.40;;;;;;;9.19;100.00;99716.69;5114979;28;20064;-53
2021/12/01 00:57:46;;;;;;;0.55;0.50;;;;;;;9.24;100.00;99714.56;5114908;28;20553;-52
2021/12/01 01:00:15;;;;;;;2.08;0.40;;;;;;;9.27;100.00;99699.31;5115262;28;20099;-53
2021/12/01 01:02:43;;;;;;;2.47;0.70;;;;;;;9.27;100.00;99698.50;5114759;28;20529;-52
2021/12/01 01:05:13;;;;;;;1.55;0.45;;;;;;;9.27;100.00;99694.03;5115267;28;20172;-52
2021/12/01 01:07:42;;;;;;;1.17;0.50;;;;;;;9.31;100.00;99673.50;5114782;28;20527;-52
2021/12/01 01:18:28;;;;;;;0.50;0.40;;;;;;;9.34;100.00;99651.28;5114618;28;20534;-52
2021/12/01 01:20:58;;;;;;;0.60;0.57;;;;;;;9.37;100.00;99648.41;5114588;28;20070;-53
2021/12/01 01:23:29;;;;;;;0.40;0.40;;;;;;;9.38;100.00;99647.44;5114795;28;20399;-52
2021/12/01 01:25:57;;;;;;;1.13;0.40;;;;;;;9.35;100.00;99631.81;5114304;28;20058;-52
2021/12/01 01:28:26;;;;;;;1.27;0.50;;;;;;;9.40;100.00;99634.97;5115341;28;20070;-52
2021/12/01 01:30:55;;;;;;;0.88;0.52;;;;;;;9.40;100.00;99634.97;5119143;28;20056;-52
2021/12/01 01:33:23;;;;;;;0.52;0.50;;;;;;;9.41;100.00;99632.19;5119588;28;20056;-52
2021/12/01 01:35:52;;;;;;;1.15;0.52;;;;;;;9.37;100.00;99614.84;5118712;28;20055;-52
2021/12/01 01:38:22;;;;;;;0.50;0.40;;;;;;;9.42;100.00;99603.94;5118974;28;20083;-52
2021/12/01 01:40:50;;;;;;;1.42;0.50;;;;;;;9.43;100.00;99602.97;5119470;28;20063;-52
2021/12/01 01:43:19;;;;;;;0.57;0.32;;;;;;;9.47;100.00;99604.44;5119249;28;20055;-52
2021/12/01 01:45:47;;;;;;;1.50;0.43;;;;;;;9.45;100.00;99595.78;5118577;28;20047;-52
2021/12/01 01:48:17;;;;;;;0.47;0.40;;;;;;;9.45;100.00;99587.84;5119041;28;20055;-52
2021/12/01 01:50:46;;;;;;;0.57;0.38;;;;;;;9.47;100.00;99604.44;5118470;28;20055;-52
2021/12/01 01:53:16;;;;;;;0.50;0.40;;;;;;;9.51;100.00;99589.19;5118904;28;20522;-52
2021/12/01 01:55:49;;;;;;;;;;;;;;;9.57;100.00;99597.53;5119981;28;20146;-52
2021/12/01 01:58:18;;;;;;;0.63;0.40;;;;;;;9.55;100.00;99586.22;5118345;28;19920;-52
2021/12/01 02:00:51;;;;;;;0.32;0.32;;;;;;;9.56;100.00;99579.94;5118257;28;20059;-52
2021/12/01 02:03:22;;;;;;;0.70;0.30;;;;;;;9.53;100.00;99572.25;5117978;28;20526;-52
2021/12/01 02:05:51;;;;;;;0.30;0.30;;;;;;;9.59;100.00;99566.47;5119384;28;20062;-52
2021/12/01 02:08:20;;;;;;;1.17;0.40;;;;;;;9.59;100.00;99574.44;5118573;28;20052;-52
2021/12/01 02:10:51;;;;;;;0.68;0.40;;;;;;;9.62;100.00;99560.97;5118062;28;20063;-52
2021/12/01 02:13:21;;;;;;;0.40;0.40;;;;;;;9.62;100.00;99566.25;5117696;28;20056;-52
2021/12/01 02:15:50;;;;;;;0.68;0.60;;;;;;;9.61;100.00;99559.25;5118807;28;20062;-53
2021/12/01 02:18:19;;;;;;;0.50;0.40;;;;;;;9.65;100.00;99555.44;5118830;28;20069;-52
2021/12/01 02:21:00;;;;;;;0.88;0.40;;;;;;;9.68;100.00;99554.38;5118159;28;20051;-53
2021/12/01 02:23:28;;;;;;;1.02;0.38;;;;;;;9.69;100.00;99544.63;5118033;28;20059;-52
2021/12/01 02:25:56;;;;;;;0.30;0.30;;;;;;;9.79;100.00;99556.25;5118870;28;20402;-52
2021/12/01 02:28:25;;;;;;;0.25;0.25;;;;;;;9.79;100.00;99565.03;5118018;28;20059;-52
2021/12/01 02:30:53;;;;;;;0.32;0.32;;;;;;;9.86;100.00;99555.66;5118010;28;20051;-52
2021/12/01 02:33:22;;;;;;;0.30;0.30;;;;;;;9.99;100.00;99563.53;5117626;28;20055;-52
2021/12/01 02:35:50;;;;;;;1.48;0.20;;;;;;;10.00;100.00;99559.94;5117903;27;20062;-52
2021/12/01 02:38:21;;;;;;;0.30;0.30;;;;;;;10.08;100.00;99558.50;5117840;28;20059;-53
2021/12/01 02:40:49;;;;;;;0.38;0.30;;;;;;;10.11;100.00;99567.06;5117429;28;20063;-52
2021/12/01 02:43:18;;;;;;;0.43;0.40;;;;;;;10.19;100.00;99556.75;5117166;28;20060;-52
2021/12/01 02:45:46;;;;;;;0.80;0.32;;;;;;;10.18;100.00;99540.97;5118232;28;20112;-52
2021/12/01 02:48:15;;;;;;;1.48;0.40;;;;;;;10.24;100.00;99545.81;5117995;28;20124;-53
2021/12/01 02:50:44;;;;;;;3.92;0.43;;;;;;;10.23;100.00;99554.72;5117570;28;20052;-52
2021/12/01 02:53:12;;;;;;;3.53;0.55;;;;;;;10.19;100.00;99547.97;5116872;28;20062;-52
2021/12/01 02:55:53;;;;;;;6.75;0.85;;;;;;;10.14;100.00;99553.59;5118395;28;20051;-52
2021/12/01 02:58:22;;;;;;;4.43;0.70;;;;;;;10.15;100.00;99551.78;5116931;28;20051;-52
2021/12/01 03:00:53;;;;;;;6.75;0.88;;;;;;;10.16;100.00;99553.50;5117985;28;20056;-52
2021/12/01 03:03:22;;;;;;;4.63;1.23;;;;;;;10.02;100.00;99547.41;5117635;28;20463;-52
2021/12/01 03:05:51;;;;;;;10.73;1.10;;;;;;;9.92;100.00;99559.66;5117010;28;20059;-52
2021/12/01 03:08:21;;;;;;;8.88;1.20;;;;;;;9.85;100.00;99555.75;5116871;28;20055;-52
2021/12/01 03:10:53;;;;;;;6.40;1.90;;;;;;;9.75;100.00;99566.22;5117192;28;20055;-52
2021/12/01 03:13:23;;;;;;;14.50;1.50;;;;;;;9.63;100.00;99556.50;5117675;28;20395;-52
2021/12/01 03:15:51;;;;;;;10.27;1.50;;;;;;;9.47;100.00;99548.84;5117113;28;20051;-52
2021/12/01 03:18:20;;;;;;;8.55;1.42;;;;;;;9.29;100.00;99538.63;5116728;28;20052;-52
2021/12/01 03:20:49;;;;;;;15.75;1.35;;;;;;;9.21;100.00;99546.28;5117871;28;20392;-53
2021/12/01 03:23:18;;;;;;;7.55;1.27;;;;;;;9.13;100.00;99537.19;5116402;28;20061;-52
2021/12/01 03:25:47;;;;;;;12.27;1.52;;;;;;;9.07;100.00;99544.63;5116871;28;20407;-53
2021/12/01 03:28:17;;;;;;;12.50;1.88;;;;;;;9.09;100.00;99541.84;5116884;28;20067;-52
2021/12/01 03:30:45;;;;;;;18.27;2.08;;;;;;;9.05;100.00;99529.81;5116823;28;20064;-53
2021/12/01 03:33:15;;;;;;;7.28;1.50;;;;;;;9.08;100.00;99540.19;5116123;28;20453;-52
2021/12/01 03:35:45;;;;;;;15.63;1.70;;;;;;;9.00;100.00;99526.66;5116198;28;20506;-52
2021/12/01 03:38:14;;;;;;;17.85;1.60;;;;;;;8.85;100.00;99533.88;5116623;28;20051;-52
2021/12/01 03:40:42;;;;;;;15.75;3.38;;;;;;;8.88;100.00;99547.72;5116330;28;20055;-53
2021/12/01 03:43:11;;;;;;;16.73;1.92;;;;;;;8.77;100.00;99531.75;5116552;28;20062;-52
2021/12/01 03:45:42;;;;;;;17.10;1.70;;;;;;;8.77;100.00;99547.63;5116196;28;20498;-52
2021/12/01 03:48:10;;;;;;;19.33;1.92;;;;;;;8.83;100.00;99541.91;5116146;28;20131;-53
2021/12/01 03:50:39;;;;;;;15.15;1.80;;;;;;;8.74;100.00;99543.41;5116137;28;20062;-52
2021/12/01 03:53:08;;;;;;;13.15;2.50;;;;;;;8.57;100.00;99532.31;5116066;28;20418;-52
2021/12/01 03:55:39;;;;;;;13.32;2.00;;;;;;;8.46;100.00;99535.69;5116846;28;20059;-52
2021/12/01 03:58:07;;;;;;;26.38;2.00;;;;;;;8.48;100.00;99542.56;5115690;28;20395;-52
2021/12/01 04:00:36;;;;;;;21.63;2.40;;;;;;;8.37;100.00;99540.63;5116183;28;20055;-52
2021/12/01 04:03:05;;;;;;;18.67;2.17;;;;;;;8.50;100.00;99532.72;5116372;28;20055;-52
2021/12/01 04:05:34;;;;;;;27.52;2.50;;;;;;;8.46;100.00;99528.63;5116140;28;20059;-52
2021/12/01 04:08:03;;;;;;;16.75;2.67;;;;;;;8.48;100.00;99531.16;5115812;28;20055;-52
2021/12/01 04:10:31;;;;;;;17.33;2.63;;;;;;;8.52;100.00;99533.50;5116041;28;20056;-52
2021/12/01 04:12:59;;;;;;;24.98;3.95;;;;;;;8.38;100.00;99534.38;5115483;28;20055;-52
2021/12/01 04:15:28;;;;;;;25.40;3.67;;;;;;;8.36;100.00;99543.38;5115615;28;20059;-52
2021/12/01 04:17:56;;;;;;;17.85;3.63;;;;;;;8.40;100.00;99536.91;5115537;28;20066;-52
2021/12/01 04:20:25;;;;;;;19.13;2.90;;;;;;;8.35;100.00;99529.34;5115614;28;20056;-52
2021/12/01 04:22:54;;;;;;;40.35;5.25;;;;;;;8.41;100.00;99535.16;5115813;28;20059;-52
2021/12/01 04:25:22;;;;;;;20.38;3.42;;;;;;;8.43;100.00;99520.06;5115267;28;20059;-53
2021/12/01 04:27:50;;;;;;;32.70;3.47;;;;;;;8.60;100.00;99529.47;5116213;28;20052;-53
2021/12/01 04:30:22;;;;;;;19.80;3.28;;;;;;;8.58;100.00;99523.44;5115616;28;20056;-52
2021/12/01 04:32:51;;;;;;;24.33;3.27;;;;;;;8.55;100.00;99533.25;5115862;27;20052;-52
2021/12/01 04:35:21;;;;;;;42.42;5.50;;;;;;;8.52;100.00;99538.78;5115035;28;20052;-52
2021/12/01 04:37:51;;;;;;;21.77;3.65;;;;;;;8.60;100.00;99532.09;5115203;28;20541;-52
2021/12/01 04:40:20;;;;;;;36.85;4.25;;;;;;;8.68;100.00;99522.69;5115650;28;20066;-52
2021/12/01 04:42:48;;;;;;;38.80;3.78;;;;;;;8.65;100.00;99516.75;5116264;28;20052;-52
2021/12/01 04:45:19;;;;;;;25.80;3.55;;;;;;;8.73;100.00;99533.78;5114845;28;20055;-52
2021/12/01 04:47:49;;;;;;;35.40;4.25;;;;;;;8.79;100.00;99536.94;5115799;28;20060;-52
2021/12/01 04:50:19;;;;;;;23.77;3.00;;;;;;;8.75;100.00;99544.25;5115505;28;20063;-53
2021/12/01 04:52:47;;;;;;;32.63;3.60;;;;;;;8.77;100.00;99542.34;5115001;28;20051;-52
2021/12/01 04:55:17;;;;;;;35.42;4.43;;;;;;;8.76;100.00;99545.94;5115485;28;20063;-52
2021/12/01 04:57:47;;;;;;;28.30;4.32;;;;;;;8.78;100.00;99544.03;5114924;28;20051;-52
2021/12/01 05:00:17;;;;;;;19.58;2.17;;;;;;;8.79;100.00;99534.28;5115183;28;20059;-52
2021/12/01 05:02:45;;;;;;;14.65;4.25;;;;;;;8.73;100.00;99562.84;5114398;28;20055;-52
2021/12/01 05:05:14;;;;;;;21.10;3.10;;;;;;;8.73;100.00;99559.38;5115357;28;20059;-53
2021/12/01 05:07:43;;;;;;;21.23;3.75;;;;;;;8.71;100.00;99580.63;5114701;28;20418;-53
2021/12/01 05:10:11;;;;;;;18.50;3.30;;;;;;;8.72;100.00;99576.19;5114903;28;20052;-52
2021/12/01 05:12:41;;;;;;;25.13;2.92;;;;;;;8.69;100.00;99577.25;5115268;28;20051;-52
2021/12/01 05:15:09;;;;;;;18.83;2.75;;;;;;;8.63;100.00;99574.19;5115771;28;20085;-52
2021/12/01 05:17:38;;;;;;;19.92;2.55;;;;;;;8.57;100.00;99575.44;5114630;28;20056;-52
2021/12/01 05:20:08;;;;;;;20.45;3.53;;;;;;;8.47;100.00;99579.66;5115206;28;20061;-52
2021/12/01 05:22:36;;;;;;;18.75;2.75;;;;;;;8.30;100.00;99575.50;5114358;28;20427;-52
2021/12/01 05:25:05;;;;;;;20.08;2.55;;;;;;;8.26;100.00;99579.31;5114660;28;20421;-52
2021/12/01 05:27:33;;;;;;;20.83;2.88;;;;;;;8.11;100.00;99582.00;5114468;28;20055;-52
2021/12/01 05:30:04;;;;;;;20.15;3.25;;;;;;;8.05;100.00;99569.19;5115069;28;20056;-52
2021/12/01 05:32:32;;;;;;;36.13;4.03;;;;;;;8.06;100.00;99584.13;5114207;28;20139;-52
2021/12/01 05:35:00;;;;;;;22.95;3.40;;;;;;;8.06;100.00;99575.34;5114450;28;20074;-52
2021/12/01 05:37:29;;;;;;;25.33;2.72;;;;;;;8.18;100.00;99583.28;5114390;28;20507;-53
2021/12/01 05:39:57;;;;;;;29.17;3.90;;;;;;;8.23;100.00;99575.06;5114702;28;20055;-52
2021/12/01 05:42:25;;;;;;;33.70;3.80;;;;;;;8.33;100.00;99585.88;5114901;28;20051;-52
2021/12/01 05:44:53;;;;;;;20.52;3.92;;;;;;;8.35;100.00;99595.38;5115323;28;20067;-52
2021/12/01 05:47:23;;;;;;;20.58;3.20;;;;;;;8.34;100.00;99574.34;5115050;28;20055;-52
2021/12/01 05:49:51;;;;;;;23.67;3.15;;;;;;;8.24;100.00;99581.19;5114705;28;20079;-52
2021/12/01 05:52:19;;;;;;;17.10;3.30;;;;;;;8.04;100.00;99586.00;5114878;28;20051;-52
2021/12/01 05:54:50;;;;;;;22.83;3.03;;;;;;;7.94;100.00;99588.41;5115119;28;20062;-52
2021/12/01 05:57:19;;;;;;;27.33;3.50;;;;;;;7.91;100.00;99569.28;5114314;28;20051;-52
2021/12/01 05:59:47;;;;;;;25.95;3.65;;;;;;;7.90;100.00;99580.78;5114444;28;20052;-52
2021/12/01 06:02:15;;;;;;;21.00;2.70;;;;;;;7.92;100.00;99582.38;5114221;28;20051;-52
2021/12/01 06:04:45;;;;;;;29.02;3.97;;;;;;;8.04;100.00;99588.66;5114571;28;20117;-52
2021/12/01 06:07:13;;;;;;;23.20;3.60;;;;;;;8.13;100.00;99595.13;5114121;28;20058;-52
2021/12/01 06:09:43;;;;;;;25.02;3.20;;;;;;;8.24;100.00;99600.53;5114440;28;20403;-52
2021/12/01 06:12:13;;;;;;;27.45;2.83;;;;;;;8.25;100.00;99583.72;5114421;28;20144;-52
2021/12/01 06:14:41;;;;;;;21.42;2.97;;;;;;;8.33;100.00;99601.72;5114086;28;20060;-53
2021/12/01 06:17:10;;;;;;;30.52;3.28;;;;;;;8.25;100.00;99604.03;5119350;28;20051;-52
2021/12/01 06:19:38;;;;;;;15.15;3.45;;;;;;;8.08;100.00;99600.69;5117834;28;20502;-52
2021/12/01 06:22:08;;;;;;;28.08;3.83;;;;;;;8.08;100.00;99602.50;5118143;28;20422;-52
2021/12/01 06:24:37;;;;;;;18.88;3.38;;;;;;;7.98;100.00;99592.56;5117463;28;20533;-52
2021/12/01 06:27:05;;;;;;;28.98;4.25;;;;;;;7.93;100.00;99599.06;5118095;27;20056;-52
2021/12/01 06:29:36;;;;;;;27.88;3.03;;;;;;;7.84;100.00;99599.69;5117633;28;20388;-52
2021/12/01 06:32:05;;;;;;;34.80;4.65;;;;;;;7.85;100.00;99609.28;5118815;28;20061;-52
2021/12/01 06:34:33;;;;;;;25.20;2.65;;;;;;;7.97;100.00;99619.06;5117605;28;20060;-52
2021/12/01 06:37:01;;;;;;;24.38;3.60;;;;;;;8.08;100.00;99613.06;5118293;28;20415;-52
2021/12/01 06:39:31;;;;;;;22.50;3.65;;;;;;;7.95;100.00;99628.88;5118082;28;20052;-52
2021/12/01 06:41:59;;;;;;;20.60;2.95;;;;;;;7.91;100.00;99616.81;5118288;28;20058;-52
2021/12/01 06:44:30;;;;;;;30.27;3.80;;;;;;;7.87;100.00;99617.94;5117368;28;20056;-52
2021/12/01 06:46:58;;;;;;;22.33;3.58;;;;;;;7.76;100.00;99632.69;5116894;28;20533;-52
2021/12/01 06:49:27;;;;;;;24.23;3.22;;;;;;;7.76;100.00;99623.94;5114064;28;20136;-52
2021/12/01 06:51:55;;;;;;;21.75;3.53;;;;;;;7.77;100.00;99621.19;5116779;28;20121;-52
2021/12/01 06:54:23;;;;;;;20.20;2.50;;;;;;;7.72;100.00;99620.66;5116945;28;20062;-52
2021/12/01 06:56:53;;;;;;;19.23;3.15;;;;;;;7.67;100.00;99620.09;5116903;27;20089;-53
2021/12/01 06:59:21;;;;;;;21.98;3.63;;;;;;;7.72;100.00;99618.00;5116438;28;20052;-53
2021/12/01 07:01:49;;;;;;;17.25;2.85;;;;;;;7.77;99.23;99615.09;5116507;28;20075;-52
2021/12/01 07:04:17;;;;;;;15.10;3.50;;;;;;;7.72;99.66;99630.38;5116269;28;20126;-52
2021/12/01 07:06:46;;;;;;;17.48;2.67;;;;;;;7.62;100.00;99635.38;5116343;28;20051;-53
2021/12/01 07:09:21;;;;;;;19.73;2.75;;;;;;;7.58;100.00;99644.44;5117723;28;20062;-53
2021/12/01 07:11:49;;;;;;;21.50;3.40;;;;;;;7.56;100.00;99638.41;5116870;28;20063;-52
2021/12/01 07:14:19;;;;;;;27.80;3.47;;;;;;;7.57;100.00;99629.56;5116528;28;20059;-52
2021/12/01 07:16:47;;;;;;;15.70;2.75;;;;;;;7.55;99.87;99631.44;5116772;28;20063;-52
2021/12/01 07:19:15;;;;;;;16.98;3.13;;;;;;;7.48;100.00;99635.41;5116770;28;20055;-53
2021/12/01 07:21:44;;;;;;;17.15;2.40;;;;;;;7.60;100.00;99635.47;5117150;28;20058;-52
2021/12/01 07:24:12;;;;;;;16.58;3.45;;;;;;;7.74;99.96;99637.22;5117324;28;20055;-52
2021/12/01 07:26:41;;;;;;;20.10;2.42;;;;;;;7.88;96.61;99630.22;5116266;28;20060;-52
2021/12/01 07:29:09;;;;;;;19.67;2.65;;;;;;;7.92;95.71;99626.44;5116788;27;20070;-53
2021/12/01 07:31:39;;;;;;;13.45;2.63;;;;;;;7.77;96.97;99634.41;5116485;28;20527;-52
2021/12/01 07:34:07;;;;;;;24.25;2.47;;;;;;;7.66;98.81;99642.16;5117074;27;20400;-52
2021/12/01 07:36:35;;;;;;;24.70;4.38;;;;;;;7.63;99.42;99650.25;5116658;28;20063;-52
2021/12/01 07:39:04;;;;;;;15.93;3.00;;;;;;;7.68;99.25;99642.06;5116094;28;20061;-53
2021/12/01 07:41:32;;;;;;;24.15;3.15;;;;;;;7.81;99.43;99658.81;5117482;28;20052;-53
2021/12/01 07:44:01;;;;;;;21.35;3.13;;;;;;;7.88;99.58;99657.47;5116287;28;20415;-52
2021/12/01 07:46:29;;;;;;;25.58;3.60;;;;;;;7.99;98.26;99667.34;5114951;28;20060;-53
2021/12/01 07:48:58;;;;;;;15.80;3.38;;;;;;;7.95;98.08;99660.56;5115594;28;20055;-52
2021/12/01 07:51:27;;;;;;;22.80;3.67;;;;;;;7.88;98.44;99664.53;5115911;28;20062;-52
2021/12/01 07:53:55;;;;;;;35.28;4.28;;;;;;;7.75;100.00;99667.97;5115903;28;20058;-53
2021/12/01 07:56:23;;;;;;;30.60;4.05;;;;;;;7.60;100.00;99639.91;5117040;28;20055;-52
2021/12/01 07:58:52;;;;;;;16.00;3.05;;;;;;;7.67;100.00;99651.78;5115894;28;20541;-53
2021/12/01 08:01:20;;;;;;;16.88;3.63;;;;;;;7.55;100.00;99669.25;5104789;28;20051;-53
2021/12/01 08:03:48;;;;;;;18.85;2.83;;;;;;;7.50;100.00;99673.09;5115556;28;20060;-53
2021/12/01 08:06:18;;;;;;;21.55;3.63;;;;;;;7.54;100.00;99671.97;5098570;28;20060;-53
2021/12/01 08:08:46;;;;;;;25.77;3.35;;;;;;;7.61;100.00;99673.28;5095612;28;20056;-52
2021/12/01 08:11:14;;;;;;;24.77;3.97;;;;;;;7.91;100.00;99670.47;5095102;28;20052;-53
2021/12/01 08:13:43;;;;;;;26.05;3.42;;;;;;;8.07;100.00;99672.13;5095277;28;20074;-53
2021/12/01 08:16:16;;;;;;;28.52;3.10;;;;;;;8.19;99.33;99672.16;5095258;28;20060;-53
2021/12/01 08:18:44;;;;;;;24.60;3.63;;;;;;;8.12;99.16;99662.97;5095011;28;20056;-53
2021/12/01 08:21:18;;;;;;;25.42;3.67;;;;;;;8.05;99.42;99671.38;5112042;28;20518;-53
2021/12/01 08:24:07;;;;;;;24.90;3.33;;;;;;;7.89;99.53;99660.97;5114069;28;20537;-52
2021/12/01 08:26:37;;;;;;;23.15;3.10;;;;;;;7.82;99.78;99671.06;5115554;28;20597;-53
2021/12/01 08:29:06;;;;;;;32.35;5.70;;;;;;;7.92;99.58;99673.97;5115645;28;20067;-52
2021/12/01 08:31:34;;;;;;;30.00;4.57;;;;;;;8.17;99.60;99676.72;5115231;28;20051;-52
2021/12/01 08:34:02;;;;;;;25.80;4.50;;;;;;;8.55;96.83;99686.56;5115170;28;20059;-52
2021/12/01 08:36:32;;;;;;;33.47;4.00;;;;;;;8.73;95.47;99683.66;5115436;28;20060;-52
2021/12/01 08:39:00;;;;;;;26.88;3.70;;;;;;;8.64;93.96;99690.41;5115956;28;20078;-52
2021/12/01 08:41:28;;;;;;;30.30;3.72;;;;;;;8.58;93.39;99689.97;5115013;28;20545;-53
2021/12/01 08:43:57;;;;;;;30.83;5.03;;;;;;;8.51;93.69;99693.00;5115151;28;20048;-52
2021/12/01 08:46:25;;;;;;;21.70;3.65;;;;;;;8.49;93.71;99696.69;5115958;28;20059;-52
2021/12/01 08:48:53;;;;;;;32.38;4.22;;;;;;;8.62;92.62;99702.88;5115377;28;20055;-52
2021/12/01 08:51:21;;;;;;;31.23;4.63;;;;;;;8.57;91.80;99702.31;5115341;28;20057;-52
2021/12/01 08:53:51;;;;;;;23.60;3.78;;;;;;;8.55;90.50;99710.34;5114519;28;20052;-52
2021/12/01 08:56:19;;;;;;;26.17;3.50;;;;;;;8.55;89.85;99702.41;5114902;28;20059;-53
2021/12/01 08:58:47;;;;;;;30.60;4.40;;;;;;;8.63;89.79;99701.09;5115079;28;20053;-53
2021/12/01 09:01:15;;;;;;;19.33;2.83;;;;;;;8.78;88.60;99713.28;5114888;28;20538;-53
2021/12/01 09:03:44;;;;;;;21.05;3.45;;;;;;;8.98;86.28;99713.69;5114529;28;20097;-53
2021/12/01 09:06:12;;;;;;;22.48;3.03;;;;;;;9.02;83.17;99704.63;5115139;28;20060;-52
2021/12/01 09:08:40;;;;;;;22.05;3.25;;;;;;;9.10;82.88;99712.88;5115066;28;20495;-52
2021/12/01 09:11:10;;;;;;;20.65;3.33;;;;;;;9.27;81.52;99714.38;5114685;28;20063;-52
2021/12/01 09:13:38;;;;;;;22.15;4.18;;;;;;;9.48;80.53;99709.34;5115898;28;20062;-52
2021/12/01 09:16:09;;;;;;;24.13;3.28;;;;;;;9.81;76.28;99707.94;5114677;28;20063;-52
2021/12/01 09:18:38;;;;;;;21.60;3.20;;;;;;;10.36;75.79;99717.19;5114829;28;20063;-52
2021/12/01 09:21:06;;;;;;;22.30;3.42;;;;;;;11.17;69.98;99705.88;5114907;28;20070;-52
2021/12/01 09:23:34;;;;;;;23.45;3.28;;;;;;;11.92;68.50;99709.75;5115270;28;20051;-53
2021/12/01 09:26:03;;;;;;;12.68;2.30;;;;;;;12.90;62.57;99711.47;5114821;28;20059;-53
2021/12/01 09:28:32;;;;;;;17.65;3.25;;;;;;;13.65;59.00;99715.69;5114878;28;20052;-53
2021/12/01 09:31:00;;;;;;;17.17;3.00;;;;;;;14.22;56.18;99709.78;5115603;28;20078;-53
2021/12/01 09:33:29;;;;;;;18.02;3.65;;;;;;;14.90;56.90;99714.34;5114545;28;20220;-53
2021/12/01 09:35:58;;;;;;;19.90;3.47;;;;;;;14.90;56.90;77695.94;5114382;28;20062;-53
2021/12/01 09:38:26;;;;;;;18.45;3.42;;;;;;;16.81;50.84;99728.03;5114757;28;20063;-53
2021/12/01 09:40:57;;;;;;;12.88;2.60;;;;;;;17.54;49.37;99729.59;5114624;28;20139;-53
2021/12/01 09:43:28;;;;;;;15.20;3.35;;;;;;;17.07;48.58;99726.28;5115069;28;20056;-53
2021/12/01 09:45:59;;;;;;;14.95;3.47;;;;;;;15.88;50.78;99721.09;5115244;28;20055;-53
2021/12/01 09:48:28;;;;;;;;;;;;;;;14.82;53.02;99721.22;5114988;28;20067;-53
2021/12/01 09:51:12;;;;;;;21.00;2.70;;;;;;;13.63;55.74;99714.97;5117309;28;19972;-53
2021/12/01 09:53:40;;;;;;;27.38;3.38;;;;;;;13.12;59.04;99719.31;5119106;28;20059;-53
2021/12/01 09:56:08;;;;;;;17.13;2.78;;;;;;;13.65;57.75;99729.03;5118303;28;20063;-53
2021/12/01 09:58:37;;;;;;;18.52;3.25;;;;;;;14.19;56.56;99721.59;5119039;28;20058;-53
2021/12/01 10:01:10;;;;;;;17.17;3.00;;;;;;;15.42;51.57;99720.97;5118534;28;20062;-53
2021/12/01 10:03:40;;;;;;;15.88;2.80;;;;;;;15.94;51.79;99715.16;5118891;28;20052;-53
2021/12/01 10:06:11;;;;;;;12.60;2.60;;;;;;;17.24;49.32;99729.06;5118463;28;20071;-53
2021/12/01 10:08:41;;;;;;;19.70;3.85;;;;;;;16.98;47.62;99713.84;5119346;28;20059;-53
2021/12/01 10:11:11;;;;;;;22.92;3.80;;;;;;;15.50;50.83;99717.56;5118678;28;20070;-53
2021/12/01 10:13:40;;;;;;;19.20;3.95;;;;;;;14.62;53.94;99720.38;5117830;28;20055;-53
2021/12/01 10:16:11;;;;;;;19.65;3.53;;;;;;;13.77;56.74;99715.56;5118323;28;20077;-53
2021/12/01 10:18:42;;;;;;;19.35;3.70;;;;;;;13.12;59.07;99713.16;5118499;28;20059;-53
2021/12/01 10:21:13;;;;;;;26.80;4.03;;;;;;;13.16;59.78;99718.09;5118882;28;20403;-53
2021/12/01 10:23:44;;;;;;;26.13;4.80;;;;;;;13.27;60.48;99719.81;5118854;28;20055;-53
2021/12/01 10:26:16;;;;;;;22.98;4.10;;;;;;;12.86;60.94;99718.00;5118440;28;20062;-53
2021/12/01 10:28:45;;;;;;;19.70;3.22;;;;;;;12.25;62.62;99716.81;5117577;28;20055;-53
2021/12/01 10:31:33;;;;;;;22.42;3.05;;;;;;;11.71;64.90;99727.25;5117757;28;20108;-53
2021/12/01 10:34:18;;;;;;;23.42;2.75;;;;;;;13.44;60.31;99726.38;5118483;28;20102;-53
2021/12/01 10:36:49;;;;;;;16.80;3.45;;;;;;;14.78;56.37;99716.34;5117255;28;20055;-53
2021/12/01 10:39:17;;;;;;;13.93;2.67;;;;;;;16.08;51.99;99715.63;5118057;28;20396;-53
2021/12/01 10:41:46;;;;;;;15.20;2.70;;;;;;;16.84;49.58;99717.88;5118111;28;20055;-53
2021/12/01 10:44:15;;;;;;;14.65;2.45;;;;;;;17.59;48.69;99716.56;5118437;28;20051;-53
2021/12/01 10:46:47;;;;;;;11.55;2.63;;;;;;;18.63;45.43;99712.69;5117833;28;20047;-53
2021/12/01 10:49:16;;;;;;;21.05;2.53;;;;;;;19.17;44.52;99714.88;5118005;28;20052;-53
2021/12/01 10:51:46;;;;;;;11.95;2.42;;;;;;;19.62;42.43;99721.50;5117319;28;20068;-53
2021/12/01 10:54:15;;;;;;;14.57;2.88;;;;;;;18.04;45.08;99725.31;5117572;28;20495;-53
2021/12/01 10:56:43;;;;;;;15.55;2.63;;;;;;;16.24;52.39;99717.63;5117131;28;20055;-53
2021/12/01 10:59:13;;;;;;;13.52;2.58;;;;;;;14.45;59.48;99721.91;5117685;28;20059;-53
2021/12/01 11:01:41;;;;;;;14.57;2.78;;;;;;;13.25;62.25;99728.94;5116865;28;20055;-53
2021/12/01 11:04:11;;;;;;;17.67;3.22;;;;;;;13.12;64.19;99721.13;5116839;28;20081;-53
2021/12/01 11:06:41;;;;;;;12.77;2.97;;;;;;;12.69;63.75;99711.44;5116888;28;20059;-53
2021/12/01 11:09:10;;;;;;;19.70;3.08;;;;;;;12.49;66.44;99715.75;5117852;28;20406;-53
2021/12/01 11:11:42;;;;;;;22.45;3.15;;;;;;;13.57;63.28;99713.69;5117188;28;20067;-53
2021/12/01 11:14:26;;;;;;;20.45;3.10;;;;;;;14.66;58.31;99718.31;5116627;28;20499;-53
2021/12/01 11:16:57;;;;;;;15.23;2.75;;;;;;;16.35;55.47;99709.41;5117309;28;20055;-53
2021/12/01 11:19:34;;;;;;;22.95;3.35;;;;;;;17.39;48.31;99706.06;5118005;28;20081;-53
2021/12/01 11:22:26;;;;;;;17.58;2.83;;;;;;;15.64;51.95;99710.91;5117672;28;20055;-53
2021/12/01 11:25:19;;;;;;;16.55;2.58;;;;;;;14.31;56.29;99704.47;5116631;28;20100;-53
2021/12/01 11:27:48;;;;;;;12.15;2.70;;;;;;;16.07;53.13;99705.91;5116843;28;20083;-53
2021/12/01 11:30:16;;;;;;;12.27;2.70;;;;;;;17.68;47.06;99706.69;5116878;28;20062;-53
2021/12/01 11:33:00;;;;;;;12.13;2.70;;;;;;;18.73;43.38;99709.84;5117434;28;20054;-53
2021/12/01 11:35:29;;;;;;;9.80;2.22;;;;;;;19.10;43.10;99692.38;5116485;27;20062;-53
2021/12/01 11:37:57;;;;;;;13.80;3.10;;;;;;;19.81;40.52;99697.91;5116841;28;20132;-53
2021/12/01 11:40:28;;;;;;;12.23;2.50;;;;;;;19.90;41.30;99701.41;5116953;27;20056;-53
2021/12/01 11:42:56;;;;;;;9.82;2.60;;;;;;;20.21;39.09;99694.16;5116039;28;20070;-54
2021/12/01 11:45:25;;;;;;;18.08;2.70;;;;;;;21.31;38.15;99689.41;5116166;28;20059;-54
2021/12/01 11:47:54;;;;;;;12.10;3.03;;;;;;;21.79;34.69;99689.91;5116737;28;20070;-54